Naomi, Kentucky
Current Conditions -  °F | °C
As of 5:55 PM on Saturday 25 Oct 2014 (Local Time) from KSME Reporting Station
Clear Clear  
Wind Chill: 68°   Ceiling: Unl
Heat Index: 68°   Visibility: 10mi
Dew Point: 54°   Wind: 7mph
Humidity: 60%   Direction: 260°W
Pressure: 30.01"   Gusts: NA
Location:  37.0701°N, 84.793°W
Report Text: KSME 252155Z AUTO 26006KT 10SM CLR 20/12 A3001 RMK AO2
Loading
Personal Weather Stations






























Interactive Weather Map New forecast layout! Learn more

10-Day Weather Forecast

Advertisements
Track Severe Weather on mobile